Rhinebeck, NY (12572)

11:21 AM EST on December 08, 2016 (GMT -0500)
Rhinebeck NE | | Change Station

Elev 210 ft 41.93 °N, 73.91 °W | Updated 0 second ago

Mostly Cloudy
Mostly Cloudy
39.4 °F
Feels Like 39 °F
N
0.9
Wind Variable Wind from SSW
Gusts 2.5 mph

Today
High -- | Low -- °F
--% Chance of Precip.
Yesterday
High -- | Low -- °F
Precip. -- in
Pressure 29.91 in
Visibility 10.0 miles
Clouds Overcast 9000 ft
Windchill 39 °F
Dew Point 39 °F
Humidity 99%
Rainfall 0.00 in
Snow Depth Not available.
7:11 AM 4:24 PM
Waxing Gibbous, 64% visible
METAR KPOU 081553Z 23006KT 10SM OVC090 03/M02 A2991 RMK AO2 SLP127 T00331022
Pressure 29.91 in
Visibility 10.0 miles
Clouds Overcast 9000 ft
Windchill 39 °F
Dew Point 39 °F
Humidity 99%
Rainfall 0.00 in
Snow Depth Not available.
7:11 AM 4:24 PM
Waxing Gibbous, 64% visible
METAR KPOU 081553Z 23006KT 10SM OVC090 03/M02 A2991 RMK AO2 SLP127 T00331022

10-Day Weather Forecast

Almanac

Astronomy

Dec. 08, 2016 Rise Set
Actual Time
Civil Twilight
Nautical Twilight
Astronomical Twilight
Moon
Length of Visible Light
Length of Day
Tomorrow will be .
, % of the Moon is Illuminated

Today's Extremes

State Highs State Lows

Community

WunderPhotos

Upload Photos

1,956,274 photos uploaded!

WunderBlog® & News

Nearby

Air Quality

  Air Quality AQ Index Pollutant
Not available.

Snow Depth

Station Depth Elevation

Earthquake Activity

City Distance Mag. Time & Date
Minimum magnitude displayed is 2.5.

Coastal Water Temperatures

Place Temperature

Stations

Nearby Weather Stations

Station Location Temp. Windchill Dew Point Humidity Wind Precip. Elev Updated Type
                   

Watches & Warnings

There are currently no watches in effect.